Time;durP1;ratioP1;P1;durP2;ratioP2;P2;SDS_P1;SDS_P2;PMS_P1;PMS_P2;Temp;Humidity;BMP_temperature;BMP_pressure;BME280_temperature;BME280_humidity;BME280_pressure;Samples;Min_cycle;Max_cycle;Signal;HPM_P1;HPM_P2
2023/10/08 00:00:38;;;;;;;16.45;6.25;;;17.60;99.90;;;;;;5070144;28;20036;-66
2023/10/08 00:02:45;;;;;;;18.13;6.30;;;17.50;99.90;;;;;;5055515;28;20041;-66
2023/10/08 00:05:10;;;;;;;16.65;6.43;;;17.50;99.90;;;;;;5063128;28;20506;-66
2023/10/08 00:07:36;;;;;;;11.25;4.88;;;17.50;99.90;;;;;;5061632;28;20162;-66
2023/10/08 00:10:02;;;;;;;14.85;4.57;;;17.50;99.90;;;;;;5060665;28;20443;-66
2023/10/08 00:12:29;;;;;;;10.02;3.85;;;17.40;99.90;;;;;;5068834;28;20036;-66
2023/10/08 00:14:55;;;;;;;9.52;4.20;;;17.40;99.90;;;;;;5064116;28;20040;-66
2023/10/08 00:17:20;;;;;;;7.25;3.60;;;17.30;99.90;;;;;;5070054;28;20467;-66
2023/10/08 00:19:52;;;;;;;10.07;3.78;;;17.30;99.90;;;;;;5070355;28;20520;-66
2023/10/08 00:22:18;;;;;;;7.65;3.50;;;17.10;99.90;;;;;;5059017;28;20496;-66
2023/10/08 00:24:46;;;;;;;6.20;3.70;;;17.10;99.90;;;;;;5062564;28;20052;-66
2023/10/08 00:27:14;;;;;;;4.57;2.50;;;17.00;99.90;;;;;;5055430;28;20071;-66
2023/10/08 00:29:43;;;;;;;5.88;2.50;;;16.90;99.90;;;;;;5073786;28;20043;-66
2023/10/08 00:32:11;;;;;;;5.07;2.47;;;16.80;99.90;;;;;;5054308;28;20052;-66
2023/10/08 00:34:41;;;;;;;3.13;2.20;;;16.70;99.90;;;;;;5067471;28;20120;-66
2023/10/08 00:37:09;;;;;;;3.70;1.73;;;16.60;99.90;;;;;;5066039;28;20041;-66
2023/10/08 00:39:37;;;;;;;2.78;1.52;;;16.50;99.90;;;;;;5054343;28;20395;-66
2023/10/08 00:42:06;;;;;;;2.92;1.40;;;16.40;99.90;;;;;;5070673;28;20106;-66
2023/10/08 00:44:35;;;;;;;2.20;1.20;;;16.30;99.90;;;;;;5068074;28;20028;-66
2023/10/08 00:47:01;;;;;;;2.47;1.30;;;16.30;99.90;;;;;;5055560;28;20037;-65
2023/10/08 00:57:28;;;;;;;2.47;1.40;;;16.00;99.90;;;;;;5060458;28;20072;-66
2023/10/08 00:59:55;;;;;;;1.95;1.38;;;16.00;99.90;;;;;;5064970;28;20045;-65
2023/10/08 01:02:27;;;;;;;2.10;1.30;;;15.90;99.90;;;;;;5070155;28;20070;-65
2023/10/08 01:04:54;;;;;;;1.98;1.40;;;15.90;99.90;;;;;;5070067;28;20047;-65
2023/10/08 01:07:23;;;;;;;3.22;1.35;;;15.80;99.90;;;;;;5069651;28;20072;-65
2023/10/08 01:09:59;;;;;;;2.67;1.42;;;15.80;99.90;;;;;;5068418;28;20067;-65
2023/10/08 01:12:34;;;;;;;3.22;1.30;;;15.80;99.90;;;;;;5068580;28;20487;-66
2023/10/08 01:15:17;;;;;;;1.77;1.00;;;15.70;99.90;;;;;;5061850;28;20128;-65
2023/10/08 01:17:58;;;;;;;1.55;1.30;;;15.70;99.90;;;;;;5062119;28;20036;-66
2023/10/08 01:20:49;;;;;;;3.40;1.10;;;15.70;99.90;;;;;;5063782;28;20055;-65
2023/10/08 01:23:20;;;;;;;1.65;1.10;;;15.60;99.90;;;;;;5058261;28;20047;-66
2023/10/08 01:26:09;;;;;;;5.95;1.20;;;15.50;99.90;;;;;;5065670;28;20041;-66
2023/10/08 01:28:35;;;;;;;2.22;1.40;;;15.60;99.90;;;;;;5056415;28;20045;-66
2023/10/08 01:31:03;;;;;;;2.28;1.33;;;15.50;99.90;;;;;;5070547;28;20431;-66
2023/10/08 01:33:37;;;;;;;4.13;1.48;;;15.50;99.90;;;;;;5072959;28;20506;-66
2023/10/08 01:36:04;;;;;;;2.03;1.38;;;15.50;99.90;;;;;;5064929;28;20109;-66
2023/10/08 01:38:32;;;;;;;2.47;1.70;;;15.50;99.90;;;;;;5069619;28;20053;-65
2023/10/08 01:41:03;;;;;;;2.17;1.52;;;15.40;99.90;;;;;;5066551;28;20040;-66
2023/10/08 01:43:29;;;;;;;3.70;1.75;;;15.40;99.90;;;;;;5061712;28;20045;-66
2023/10/08 01:45:55;;;;;;;2.42;1.90;;;15.40;99.90;;;;;;5062651;28;20037;-65
2023/10/08 01:48:27;;;;;;;4.75;1.85;;;15.40;99.90;;;;;;5053398;28;20072;-66
2023/10/08 01:51:01;;;;;;;2.65;1.90;;;15.30;99.90;;;;;;5056279;28;20086;-65
2023/10/08 01:53:28;;;;;;;3.20;1.90;;;15.30;99.90;;;;;;5058374;28;20041;-66
2023/10/08 01:55:55;;;;;;;3.55;2.15;;;15.30;99.90;;;;;;5057712;28;20465;-66
2023/10/08 01:58:22;;;;;;;3.28;2.00;;;15.30;99.90;;;;;;5062737;28;20067;-66
2023/10/08 02:00:49;;;;;;;3.45;2.08;;;15.30;99.90;;;;;;5073719;28;20041;-65
2023/10/08 02:03:17;;;;;;;2.25;1.90;;;15.30;99.90;;;;;;5060767;28;20080;-65
2023/10/08 02:05:46;;;;;;;3.22;2.10;;;15.20;99.90;;;;;;5065344;28;20398;-66
2023/10/08 02:08:13;;;;;;;2.05;1.70;;;15.20;99.90;;;;;;5062047;28;20063;-66
2023/10/08 02:10:42;;;;;;;2.40;1.80;;;15.20;99.90;;;;;;5065573;28;20080;-65
2023/10/08 02:13:09;;;;;;;2.10;1.80;;;15.20;99.90;;;;;;5057973;28;20037;-65
2023/10/08 02:15:36;;;;;;;3.25;2.10;;;15.20;99.90;;;;;;5057754;28;20368;-66
2023/10/08 02:18:03;;;;;;;3.15;1.92;;;15.10;99.90;;;;;;5073306;28;20052;-66
2023/10/08 02:20:29;;;;;;;2.92;2.20;;;15.10;99.90;;;;;;5073346;28;20105;-66
2023/10/08 02:22:55;;;;;;;4.82;2.17;;;15.10;99.90;;;;;;5060446;28;20510;-66
2023/10/08 02:25:20;;;;;;;4.57;2.33;;;15.10;99.90;;;;;;5057803;28;20515;-65
2023/10/08 02:27:48;;;;;;;2.88;2.10;;;15.10;99.90;;;;;;5072838;28;20044;-66
2023/10/08 02:30:14;;;;;;;2.47;1.98;;;15.10;99.90;;;;;;5065008;28;20044;-65
2023/10/08 02:32:42;;;;;;;2.42;1.60;;;15.10;99.90;;;;;;5069218;28;20151;-65
2023/10/08 02:35:12;;;;;;;3.03;2.08;;;15.10;99.90;;;;;;5055197;28;20036;-66
2023/10/08 02:37:41;;;;;;;3.50;2.00;;;15.10;99.90;;;;;;5072078;28;20104;-66
2023/10/08 02:40:19;;;;;;;2.38;1.80;;;15.00;99.90;;;;;;5063387;28;20094;-66
2023/10/08 02:42:46;;;;;;;2.88;1.80;;;15.00;99.90;;;;;;5061769;28;20037;-66
2023/10/08 02:45:13;;;;;;;2.72;1.60;;;15.10;99.90;;;;;;5076312;28;20047;-66
2023/10/08 02:47:45;;;;;;;2.60;1.40;;;15.00;99.90;;;;;;5062067;28;20415;-66
2023/10/08 02:50:16;;;;;;;2.55;1.42;;;15.00;99.90;;;;;;5065332;28;20228;-67
2023/10/08 02:52:44;;;;;;;2.35;1.40;;;15.00;99.90;;;;;;5073097;28;20392;-67
2023/10/08 02:55:23;;;;;;;1.65;1.25;;;15.00;99.90;;;;;;5059664;28;20112;-68
2023/10/08 02:57:50;;;;;;;1.02;0.90;;;15.00;99.90;;;;;;5069943;28;20036;-67
2023/10/08 03:00:19;;;;;;;1.67;1.10;;;15.00;99.90;;;;;;5074630;28;20043;-67
2023/10/08 03:02:46;;;;;;;3.20;1.48;;;15.00;99.90;;;;;;5067350;28;20036;-67
2023/10/08 03:05:16;;;;;;;2.08;1.25;;;15.00;99.90;;;;;;5063750;28;20052;-67
2023/10/08 03:07:41;;;;;;;2.83;1.10;;;15.00;99.90;;;;;;5071134;28;20499;-68
2023/10/08 03:10:17;;;;;;;3.10;0.90;;;15.00;99.90;;;;;;5071881;28;20065;-67
2023/10/08 03:12:43;;;;;;;3.10;1.20;;;14.90;99.90;;;;;;5059344;28;20556;-67
2023/10/08 03:15:58;;;;;;;1.50;1.00;;;14.90;99.90;;;;;;5077956;28;20041;-67
2023/10/08 03:18:09;;;;;;;2.30;1.27;;;14.90;99.90;;;;;;5060477;28;20123;-67
2023/10/08 03:20:42;;;;;;;3.22;1.15;;;14.90;99.90;;;;;;5068985;28;20055;-67
2023/10/08 03:23:22;;;;;;;1.83;1.08;;;14.90;99.90;;;;;;5071486;28;20111;-67
2023/10/08 03:26:01;;;;;;;1.90;1.27;;;14.90;99.90;;;;;;5066168;28;20040;-67
2023/10/08 03:28:34;;;;;;;1.98;0.95;;;14.90;99.90;;;;;;5070961;28;20037;-67
2023/10/08 03:31:04;;;;;;;4.53;1.10;;;14.90;99.90;;;;;;5067671;28;20487;-67
2023/10/08 03:33:37;;;;;;;2.28;1.20;;;14.80;99.90;;;;;;5066234;28;20487;-67
2023/10/08 03:36:33;;;;;;;2.92;1.42;;;14.80;99.90;;;;;;5055735;28;20037;-67
2023/10/08 03:39:09;;;;;;;3.00;1.38;;;14.90;99.90;;;;;;5071827;28;20040;-67
2023/10/08 03:41:39;;;;;;;6.60;1.58;;;14.80;99.90;;;;;;5053408;28;20060;-67
2023/10/08 03:44:06;;;;;;;2.45;1.17;;;14.70;99.90;;;;;;5063007;28;20052;-67
2023/10/08 03:46:39;;;;;;;1.80;1.13;;;14.80;99.90;;;;;;5079469;28;20174;-67
2023/10/08 03:49:12;;;;;;;3.63;1.20;;;14.70;99.90;;;;;;5068173;28;20037;-67
2023/10/08 03:51:40;;;;;;;2.00;1.30;;;14.70;99.90;;;;;;5059510;28;20047;-67
2023/10/08 03:56:45;;;;;;;3.97;1.20;;;14.70;99.90;;;;;;5067003;28;20491;-68
2023/10/08 03:59:14;;;;;;;2.67;1.30;;;14.70;99.90;;;;;;5061879;28;20143;-67
2023/10/08 04:01:43;;;;;;;2.35;1.30;;;14.70;99.90;;;;;;5061920;28;20040;-68
2023/10/08 04:04:14;;;;;;;2.88;1.33;;;14.60;99.90;;;;;;5065843;28;20041;-68
2023/10/08 04:06:48;;;;;;;2.90;1.52;;;14.60;99.90;;;;;;5062335;28;20154;-68
2023/10/08 04:11:51;;;;;;;;;;;14.60;99.90;;;;;;5067352;28;20045;-68
2023/10/08 04:14:24;;;;;;;2.85;1.52;;;14.60;99.90;;;;;;5065774;28;20007;-68
2023/10/08 04:16:51;;;;;;;3.17;1.60;;;14.60;99.90;;;;;;5065129;28;20037;-68
2023/10/08 04:19:21;;;;;;;2.20;1.60;;;14.60;99.90;;;;;;5062504;28;20040;-68
2023/10/08 04:21:53;;;;;;;3.13;1.70;;;14.60;99.90;;;;;;5062534;28;20522;-68
2023/10/08 04:24:29;;;;;;;3.38;2.00;;;14.60;99.90;;;;;;5060694;28;20079;-68
2023/10/08 04:26:57;;;;;;;2.38;1.25;;;14.60;99.90;;;;;;5059744;28;20044;-68
2023/10/08 04:29:23;;;;;;;2.88;1.27;;;14.60;99.90;;;;;;5064427;28;20498;-68
2023/10/08 04:32:00;;;;;;;3.97;1.67;;;14.50;99.90;;;;;;5065816;28;20053;-68
2023/10/08 04:34:27;;;;;;;3.17;1.83;;;14.50;99.90;;;;;;5061807;28;20032;-68
2023/10/08 04:37:00;;;;;;;5.28;1.88;;;14.50;99.90;;;;;;5056110;28;20037;-68
2023/10/08 04:39:32;;;;;;;2.17;1.50;;;14.50;99.90;;;;;;5063958;28;20048;-68
2023/10/08 04:42:12;;;;;;;3.83;1.73;;;14.50;99.90;;;;;;5064903;28;20055;-68
2023/10/08 04:44:39;;;;;;;4.72;1.52;;;14.50;99.90;;;;;;5058068;28;20048;-68
2023/10/08 04:47:06;;;;;;;4.72;1.83;;;14.50;99.90;;;;;;5055784;28;20423;-67
2023/10/08 04:49:34;;;;;;;3.65;1.70;;;14.50;99.90;;;;;;5061812;28;20127;-68
2023/10/08 04:52:13;;;;;;;4.03;2.20;;;14.50;99.90;;;;;;5067674;28;20045;-68
2023/10/08 04:54:51;;;;;;;3.63;1.73;;;14.50;99.90;;;;;;5062711;28;20040;-68
2023/10/08 04:57:18;;;;;;;4.07;1.83;;;14.50;99.90;;;;;;5061766;28;20442;-68
2023/10/08 04:59:46;;;;;;;2.72;1.95;;;14.50;99.90;;;;;;5069126;28;20036;-68
2023/10/08 05:04:56;;;;;;;4.78;2.35;;;14.50;99.90;;;;;;5058784;28;20110;-67
2023/10/08 05:08:00;;;;;;;4.47;2.05;;;14.40;99.90;;;;;;5070362;28;20044;-68
2023/10/08 05:13:15;;;;;;;3.90;2.28;;;14.40;99.90;;;;;;5067788;28;20041;-68
2023/10/08 05:15:47;;;;;;;3.00;1.77;;;14.40;99.90;;;;;;5053287;28;20032;-68
2023/10/08 05:18:19;;;;;;;3.78;2.00;;;14.40;99.90;;;;;;5063536;28;20624;-68
2023/10/08 05:20:59;;;;;;;4.05;2.33;;;14.40;99.90;;;;;;5058816;28;20082;-68
2023/10/08 05:25:58;;;;;;;5.28;2.28;;;14.30;99.90;;;;;;5068071;28;20120;-68
2023/10/08 05:28:27;;;;;;;4.30;2.45;;;14.30;99.90;;;;;;5058908;28;20029;-68
2023/10/08 05:30:55;;;;;;;7.15;2.55;;;14.30;99.90;;;;;;5067294;28;20045;-68
2023/10/08 05:33:24;;;;;;;4.35;2.50;;;14.30;99.90;;;;;;5066606;28;20078;-68
2023/10/08 05:35:55;;;;;;;4.53;2.50;;;14.30;99.90;;;;;;5071289;28;20052;-68
2023/10/08 05:38:23;;;;;;;5.15;2.50;;;14.30;99.90;;;;;;5056666;28;20495;-68
2023/10/08 05:49:15;;;;;;;4.82;2.03;;;14.30;99.90;;;;;;5068427;28;20040;-68
2023/10/08 06:05:22;;;;;;;5.05;2.30;;;14.20;99.90;;;;;;5061655;28;20045;-68
2023/10/08 06:13:44;;;;;;;4.22;2.25;;;14.20;99.90;;;;;;5061538;28;20137;-68
2023/10/08 06:16:13;;;;;;;3.88;2.30;;;14.20;99.90;;;;;;5055754;28;20464;-68
2023/10/08 06:18:39;;;;;;;4.35;2.22;;;14.20;99.90;;;;;;5069538;28;20041;-68
2023/10/08 06:21:10;;;;;;;4.03;2.20;;;14.20;99.90;;;;;;5058217;28;20048;-68
2023/10/08 06:23:41;;;;;;;7.18;2.30;;;14.20;99.90;;;;;;5063272;28;20402;-68
2023/10/08 06:28:38;;;;;;;7.35;2.08;;;14.20;99.90;;;;;;5061064;28;20049;-68
2023/10/08 06:31:11;;;;;;;6.18;2.33;;;14.20;99.90;;;;;;5067573;28;20407;-68
2023/10/08 06:33:38;;;;;;;4.05;2.15;;;14.20;99.90;;;;;;5056692;28;20375;-68
2023/10/08 06:36:15;;;;;;;5.28;2.28;;;14.20;99.90;;;;;;5062292;28;20044;-68
2023/10/08 06:38:43;;;;;;;4.15;2.10;;;14.20;99.90;;;;;;5059229;28;20028;-67
2023/10/08 06:41:17;;;;;;;7.28;2.22;;;14.20;99.90;;;;;;5058364;28;20060;-67
2023/10/08 06:43:49;;;;;;;4.28;1.92;;;14.20;99.90;;;;;;5061598;28;20043;-67
2023/10/08 06:46:18;;;;;;;5.97;2.22;;;14.20;99.90;;;;;;5050903;28;20125;-67
2023/10/08 06:48:45;;;;;;;4.82;2.25;;;14.20;99.90;;;;;;5061254;28;20475;-67
2023/10/08 06:51:17;;;;;;;5.97;2.25;;;14.20;99.90;;;;;;5066308;28;20047;-67
2023/10/08 06:53:44;;;;;;;7.75;2.00;;;14.20;99.90;;;;;;5059582;28;20036;-67
2023/10/08 06:56:12;;;;;;;5.10;2.33;;;14.20;99.90;;;;;;5065052;28;20446;-67
2023/10/08 06:58:38;;;;;;;7.85;2.30;;;14.20;99.90;;;;;;5072745;28;20130;-67
2023/10/08 07:01:08;;;;;;;7.68;3.90;;;14.20;99.90;;;;;;5073356;28;20041;-67
2023/10/08 07:03:35;;;;;;;8.63;4.43;;;14.20;99.90;;;;;;5054626;28;20045;-67
2023/10/08 07:06:03;;;;;;;7.90;4.07;;;14.20;99.90;;;;;;5070231;28;20032;-67
2023/10/08 07:08:35;;;;;;;8.10;3.88;;;14.20;99.90;;;;;;5071626;28;20480;-67
2023/10/08 07:11:06;;;;;;;6.40;2.40;;;14.20;99.90;;;;;;5067928;28;20460;-66
2023/10/08 07:13:33;;;;;;;5.10;2.20;;;14.20;99.90;;;;;;5070139;28;20101;-66
2023/10/08 07:16:03;;;;;;;4.80;1.65;;;14.20;99.90;;;;;;5071493;28;20286;-66
2023/10/08 07:18:33;;;;;;;12.45;2.90;;;14.20;99.90;;;;;;5072395;28;20044;-66
2023/10/08 07:21:02;;;;;;;6.25;2.00;;;14.20;99.90;;;;;;5072839;28;20059;-66
2023/10/08 07:23:34;;;;;;;5.30;2.05;;;14.20;99.90;;;;;;5069696;28;20124;-66
2023/10/08 07:26:11;;;;;;;9.43;2.42;;;14.30;99.90;;;;;;5062026;28;20492;-67
2023/10/08 07:28:39;;;;;;;4.13;1.70;;;14.30;99.90;;;;;;5058697;28;20043;-66
2023/10/08 07:31:15;;;;;;;6.38;1.80;;;14.30;99.90;;;;;;5070762;28;20078;-66
2023/10/08 07:33:43;;;;;;;4.22;1.88;;;14.40;99.90;;;;;;5061648;28;20336;-66
2023/10/08 07:36:14;;;;;;;4.45;1.92;;;14.40;99.90;;;;;;5060951;28;20045;-67
2023/10/08 07:38:42;;;;;;;4.90;1.83;;;14.40;99.90;;;;;;5068112;28;20108;-67
2023/10/08 07:41:15;;;;;;;4.68;1.92;;;14.50;99.90;;;;;;5063693;28;20074;-67
2023/10/08 07:43:58;;;;;;;4.75;1.50;;;14.50;99.90;;;;;;5071085;28;20029;-67
2023/10/08 07:46:26;;;;;;;6.90;2.10;;;14.50;99.90;;;;;;5069816;28;20128;-67
2023/10/08 07:48:52;;;;;;;6.78;1.92;;;14.50;99.90;;;;;;5058791;28;20572;-67
2023/10/08 07:51:23;;;;;;;5.25;2.30;;;14.50;99.90;;;;;;5068545;28;20490;-66
2023/10/08 07:53:57;;;;;;;5.28;1.77;;;14.50;99.90;;;;;;5071916;28;20029;-67
2023/10/08 07:56:26;;;;;;;4.70;1.75;;;14.50;99.90;;;;;;5064135;28;20062;-66
2023/10/08 07:58:55;;;;;;;6.65;2.25;;;14.50;99.90;;;;;;5076106;28;20112;-66
2023/10/08 08:01:24;;;;;;;7.47;1.80;;;14.50;99.90;;;;;;5071227;28;20065;-66
2023/10/08 08:03:50;;;;;;;9.20;2.35;;;14.60;99.90;;;;;;5051915;28;20376;-66
2023/10/08 08:06:16;;;;;;;7.03;1.90;;;14.60;99.90;;;;;;5068004;28;20115;-66
2023/10/08 08:08:44;;;;;;;4.53;1.45;;;14.70;99.90;;;;;;5067803;28;20028;-67
2023/10/08 08:11:13;;;;;;;6.88;2.10;;;14.60;99.90;;;;;;5073454;28;20582;-67
2023/10/08 08:13:42;;;;;;;5.10;2.38;;;14.60;99.90;;;;;;5068051;28;20178;-67
2023/10/08 08:16:18;;;;;;;8.48;3.20;;;14.60;99.90;;;;;;5058714;28;20074;-66
2023/10/08 08:18:48;;;;;;;4.80;2.30;;;14.70;99.90;;;;;;5061891;28;20380;-66
2023/10/08 08:21:15;;;;;;;4.28;2.00;;;14.70;99.90;;;;;;5070491;28;20037;-66
2023/10/08 08:23:47;;;;;;;5.32;2.15;;;14.70;99.90;;;;;;5066850;28;20234;-66
2023/10/08 08:26:27;;;;;;;5.03;1.80;;;14.80;99.90;;;;;;5065563;28;20115;-66
2023/10/08 08:28:57;;;;;;;9.32;2.35;;;14.80;99.90;;;;;;5065151;28;20041;-66
2023/10/08 08:31:25;;;;;;;6.20;2.22;;;14.80;99.90;;;;;;5069140;28;20036;-66
2023/10/08 08:33:53;;;;;;;8.30;2.70;;;14.80;99.90;;;;;;5062687;28;20478;-66
2023/10/08 08:36:23;;;;;;;7.53;2.72;;;14.90;99.90;;;;;;5059574;28;20382;-66
2023/10/08 08:38:50;;;;;;;8.70;2.58;;;14.90;99.90;;;;;;5057960;28;20037;-66
2023/10/08 08:41:19;;;;;;;7.68;2.67;;;14.90;99.90;;;;;;5070994;28;20036;-66
2023/10/08 08:43:48;;;;;;;8.70;2.60;;;15.00;99.90;;;;;;5062246;28;20471;-66
2023/10/08 08:46:14;;;;;;;7.07;2.40;;;15.00;99.90;;;;;;5069145;28;20029;-66
2023/10/08 08:48:47;;;;;;;7.47;2.88;;;15.10;99.90;;;;;;5062678;28;20086;-66
2023/10/08 08:51:13;;;;;;;5.55;2.45;;;15.20;99.90;;;;;;5067340;28;20033;-66
2023/10/08 08:53:41;;;;;;;6.35;2.20;;;15.20;99.90;;;;;;5062156;28;20415;-66
2023/10/08 08:56:09;;;;;;;5.15;2.00;;;15.30;99.90;;;;;;5066597;28;20052;-66
2023/10/08 08:58:35;;;;;;;5.75;2.08;;;15.30;99.90;;;;;;5059503;28;20040;-66
2023/10/08 09:01:03;;;;;;;7.03;1.90;;;15.30;99.90;;;;;;5061360;28;20049;-66
2023/10/08 09:03:32;;;;;;;5.97;1.95;;;15.30;99.90;;;;;;5062477;28;20600;-66
2023/10/08 09:05:58;;;;;;;6.85;2.13;;;15.30;99.90;;;;;;5072660;28;20036;-66
2023/10/08 09:08:34;;;;;;;5.05;1.52;;;15.40;99.90;;;;;;5066795;28;20037;-66
2023/10/08 09:11:00;;;;;;;4.97;1.85;;;15.50;99.90;;;;;;5065674;28;20036;-66
2023/10/08 09:13:27;;;;;;;5.43;1.50;;;15.50;99.90;;;;;;5063550;28;20170;-66
2023/10/08 09:16:17;;;;;;;5.97;1.83;;;15.50;99.90;;;;;;5060822;28;20044;-66
2023/10/08 09:18:48;;;;;;;5.47;1.50;;;15.60;99.90;;;;;;5068892;28;20085;-66
2023/10/08 09:21:22;;;;;;;11.02;4.40;;;15.60;99.90;;;;;;5068111;28;20094;-67
2023/10/08 09:23:54;;;;;;;11.90;4.75;;;15.60;99.90;;;;;;5078957;28;20066;-66
2023/10/08 09:26:23;;;;;;;9.95;2.42;;;15.70;99.90;;;;;;5060982;28;20049;-66
2023/10/08 09:28:51;;;;;;;6.32;1.70;;;15.80;99.90;;;;;;5069126;28;20037;-66
2023/10/08 09:31:17;;;;;;;8.15;1.90;;;15.80;99.90;;;;;;5064626;28;20033;-66
2023/10/08 09:33:53;;;;;;;7.47;1.80;;;15.80;99.90;;;;;;5067783;28;20029;-68
2023/10/08 09:36:19;;;;;;;6.78;1.77;;;15.80;99.90;;;;;;5057630;28;20708;-67
2023/10/08 09:38:48;;;;;;;5.68;1.90;;;15.80;99.90;;;;;;5058319;28;20044;-67
2023/10/08 09:41:15;;;;;;;5.95;1.85;;;15.90;99.90;;;;;;5062474;28;20075;-66
2023/10/08 09:43:41;;;;;;;5.30;1.77;;;15.90;99.90;;;;;;5068136;28;20099;-66
2023/10/08 09:46:19;;;;;;;7.22;2.03;;;16.00;99.90;;;;;;5050659;28;20467;-69
2023/10/08 09:48:53;;;;;;;8.40;1.77;;;15.90;99.90;;;;;;5064524;28;20035;-70
2023/10/08 09:51:19;;;;;;;8.85;1.83;;;15.90;99.90;;;;;;5065511;28;20119;-70
2023/10/08 09:53:58;;;;;;;9.30;1.73;;;15.90;99.90;;;;;;5058579;28;20162;-68
2023/10/08 09:56:25;;;;;;;8.73;1.70;;;15.90;99.90;;;;;;5056653;28;20037;-72
2023/10/08 09:58:51;;;;;;;7.65;1.77;;;15.90;99.90;;;;;;5063221;28;20048;-70
2023/10/08 10:01:19;;;;;;;4.13;1.40;;;16.00;99.90;;;;;;5064594;28;20068;-70
2023/10/08 10:03:45;;;;;;;4.78;1.40;;;15.90;99.90;;;;;;5063525;28;20044;-72
2023/10/08 10:06:17;;;;;;;4.90;1.60;;;15.90;99.90;;;;;;5069384;28;20032;-69
2023/10/08 10:08:43;;;;;;;7.80;1.80;;;16.00;99.90;;;;;;5066157;28;20037;-67
2023/10/08 10:11:10;;;;;;;6.78;1.63;;;16.00;99.90;;;;;;5063806;28;20041;-67
2023/10/08 10:13:48;;;;;;;6.30;1.73;;;16.00;99.90;;;;;;5073918;28;20075;-67
2023/10/08 10:16:22;;;;;;;9.98;2.03;;;16.00;99.90;;;;;;5046828;28;20089;-67
2023/10/08 10:18:56;;;;;;;9.38;1.63;;;16.00;99.90;;;;;;5071464;28;20491;-68
2023/10/08 10:21:29;;;;;;;5.32;1.50;;;15.90;99.90;;;;;;5062022;28;20040;-67
2023/10/08 10:23:56;;;;;;;5.43;1.58;;;15.90;99.90;;;;;;5064176;28;20459;-67
2023/10/08 10:26:30;;;;;;;7.40;1.50;;;16.00;99.90;;;;;;5058078;28;20049;-67
2023/10/08 10:29:09;;;;;;;7.93;1.60;;;16.20;99.90;;;;;;5069948;28;20090;-67
2023/10/08 10:31:35;;;;;;;10.10;1.98;;;16.40;99.90;;;;;;5067697;28;20045;-67
2023/10/08 10:34:08;;;;;;;10.43;1.60;;;16.60;99.90;;;;;;5073614;28;20115;-67
2023/10/08 10:36:39;;;;;;;8.77;2.28;;;16.70;99.90;;;;;;5071531;28;20085;-66
2023/10/08 10:39:15;;;;;;;6.90;1.63;;;16.70;99.90;;;;;;5066364;28;20495;-67
2023/10/08 10:41:42;;;;;;;8.77;1.65;;;16.70;99.90;;;;;;5057570;28;20082;-67
2023/10/08 10:44:08;;;;;;;8.57;2.00;;;16.80;99.90;;;;;;5071064;28;20086;-67
2023/10/08 10:46:41;;;;;;;8.38;2.38;;;16.80;99.90;;;;;;5063300;28;20398;-67
2023/10/08 10:49:23;;;;;;;7.18;1.45;;;16.80;99.90;;;;;;5071482;28;20159;-67
2023/10/08 10:51:57;;;;;;;6.05;1.40;;;16.90;99.90;;;;;;5062660;28;20040;-67
2023/10/08 10:54:24;;;;;;;11.85;2.03;;;16.90;99.90;;;;;;5070901;28;20055;-67
2023/10/08 10:57:17;;;;;;;10.80;2.20;;;17.00;99.90;;;;;;5060203;28;20496;-67
2023/10/08 10:59:52;;;;;;;6.45;1.52;;;17.00;99.90;;;;;;5066362;28;20182;-67
2023/10/08 11:02:31;;;;;;;7.35;1.65;;;17.10;99.90;;;;;;5064967;28;20060;-68
2023/10/08 11:05:07;;;;;;;9.30;2.00;;;17.20;99.90;;;;;;5065735;28;20168;-67
2023/10/08 11:07:34;;;;;;;7.10;1.45;;;17.30;99.90;;;;;;5061692;28;20066;-67
2023/10/08 11:10:00;;;;;;;5.38;1.52;;;17.50;99.90;;;;;;5056838;28;20164;-67
2023/10/08 11:12:42;;;;;;;5.65;1.63;;;17.60;99.90;;;;;;5071580;28;20032;-67
2023/10/08 11:15:15;;;;;;;5.60;1.30;;;17.70;99.90;;;;;;5068866;28;20044;-68
2023/10/08 11:17:41;;;;;;;7.03;1.50;;;17.90;99.90;;;;;;5069071;28;20048;-67
2023/10/08 11:20:26;;;;;;;7.43;1.70;;;18.00;99.90;;;;;;5057996;28;20116;-67
2023/10/08 11:22:53;;;;;;;5.03;1.55;;;18.20;99.90;;;;;;5065723;28;20059;-67
2023/10/08 11:25:30;;;;;;;5.05;1.58;;;18.20;99.90;;;;;;5068171;28;20037;-67
2023/10/08 11:28:08;;;;;;;6.95;1.55;;;18.30;99.90;;;;;;5064536;28;20052;-67
2023/10/08 11:30:35;;;;;;;6.22;1.98;;;18.30;99.90;;;;;;5064504;28;20487;-68
2023/10/08 11:33:01;;;;;;;6.00;1.55;;;18.40;99.90;;;;;;5066113;28;20040;-67
2023/10/08 11:35:33;;;;;;;7.30;1.80;;;18.30;99.90;;;;;;5067906;28;20039;-68
2023/10/08 11:38:03;;;;;;;10.82;2.38;;;18.40;99.90;;;;;;5065330;28;20037;-68
2023/10/08 11:40:28;;;;;;;4.63;1.60;;;18.30;99.90;;;;;;5064028;28;20043;-68
2023/10/08 11:42:59;;;;;;;7.07;1.67;;;18.30;99.90;;;;;;5062121;28;20040;-67
2023/10/08 11:45:30;;;;;;;7.57;1.67;;;18.30;99.90;;;;;;5067522;28;20039;-68
2023/10/08 11:47:56;;;;;;;8.35;1.77;;;18.30;99.90;;;;;;5064221;28;20052;-67
2023/10/08 11:50:31;;;;;;;8.63;1.90;;;18.20;99.90;;;;;;5068946;28;20051;-67
2023/10/08 11:53:05;;;;;;;8.23;1.45;;;18.20;99.90;;;;;;5060917;28;20036;-67
2023/10/08 11:55:36;;;;;;;6.40;1.77;;;18.20;99.90;;;;;;5067920;28;20040;-68
2023/10/08 11:58:12;;;;;;;5.57;1.75;;;18.10;99.90;;;;;;5065303;28;20040;-68
2023/10/08 12:00:45;;;;;;;10.30;1.90;;;18.10;99.90;;;;;;5066629;28;20503;-67
2023/10/08 12:03:24;;;;;;;8.50;1.70;;;18.00;99.90;;;;;;5065887;28;20414;-68
2023/10/08 12:05:58;;;;;;;8.35;1.60;;;18.00;99.90;;;;;;5059297;28;20558;-68
2023/10/08 12:08:27;;;;;;;10.20;2.28;;;18.10;99.90;;;;;;5067138;28;20051;-67
2023/10/08 12:10:54;;;;;;;5.78;1.52;;;18.10;99.90;;;;;;5061039;28;20055;-68
2023/10/08 12:13:24;;;;;;;7.38;2.03;;;18.00;99.90;;;;;;5067824;28;20364;-68
2023/10/08 12:16:05;;;;;;;6.20;1.50;;;18.00;99.90;;;;;;5060293;28;20492;-68
2023/10/08 12:18:39;;;;;;;5.78;1.50;;;18.10;99.90;;;;;;5069633;28;20036;-68
2023/10/08 12:21:05;;;;;;;7.43;2.20;;;18.10;99.90;;;;;;5071032;28;20040;-68
2023/10/08 12:23:33;;;;;;;7.82;2.00;;;18.10;99.90;;;;;;5071101;28;20041;-67
2023/10/08 12:25:59;;;;;;;10.27;2.33;;;18.10;99.90;;;;;;5062602;28;20435;-67
2023/10/08 12:28:27;;;;;;;6.80;1.88;;;18.10;99.90;;;;;;5067433;28;20114;-67
2023/10/08 12:30:53;;;;;;;7.10;1.45;;;18.20;99.90;;;;;;5069011;28;20398;-68
2023/10/08 12:33:20;;;;;;;4.90;1.55;;;18.10;99.90;;;;;;5063624;28;20037;-68
2023/10/08 12:35:47;;;;;;;5.82;1.77;;;18.20;99.90;;;;;;5071420;28;20119;-67
2023/10/08 12:38:14;;;;;;;7.22;1.60;;;18.20;99.90;;;;;;5071432;28;20037;-68
2023/10/08 12:40:59;;;;;;;8.43;1.98;;;18.20;99.90;;;;;;5068390;28;20047;-68
2023/10/08 12:43:27;;;;;;;9.15;1.73;;;18.30;99.90;;;;;;5064153;28;20494;-68
2023/10/08 12:45:54;;;;;;;5.13;1.58;;;18.40;99.90;;;;;;5057508;28;20478;-68
2023/10/08 12:48:27;;;;;;;6.30;1.80;;;18.30;99.90;;;;;;5071213;28;20422;-68
2023/10/08 12:50:57;;;;;;;7.78;1.60;;;18.50;99.90;;;;;;5061872;28;20048;-68
2023/10/08 12:53:26;;;;;;;5.72;1.63;;;18.50;99.90;;;;;;5071751;28;20421;-68
2023/10/08 12:55:57;;;;;;;4.53;1.38;;;18.50;99.90;;;;;;5071385;28;20394;-68
2023/10/08 12:58:25;;;;;;;6.07;1.65;;;18.50;99.90;;;;;;5044641;28;20041;-68
2023/10/08 13:00:57;;;;;;;9.05;1.63;;;18.50;99.90;;;;;;5073176;28;20032;-68
2023/10/08 13:03:24;;;;;;;7.35;1.70;;;18.50;99.90;;;;;;5062641;28;20048;-68
2023/10/08 13:05:52;;;;;;;5.78;1.60;;;18.50;99.90;;;;;;5061946;28;20040;-68
2023/10/08 13:08:21;;;;;;;6.63;1.95;;;18.50;99.90;;;;;;5063011;28;20051;-68
2023/10/08 13:10:47;;;;;;;5.35;1.30;;;18.40;99.90;;;;;;5070433;28;20045;-68
2023/10/08 13:13:13;;;;;;;5.68;1.75;;;18.40;99.90;;;;;;5062475;28;20028;-68
2023/10/08 13:15:42;;;;;;;5.55;1.60;;;18.40;99.90;;;;;;5063175;28;20025;-67
2023/10/08 13:18:08;;;;;;;8.48;1.63;;;18.50;99.90;;;;;;5062705;28;20387;-68
2023/10/08 13:20:34;;;;;;;5.18;1.75;;;18.40;99.90;;;;;;5059915;28;20040;-68
2023/10/08 13:23:06;;;;;;;5.30;1.50;;;18.30;99.90;;;;;;5059239;28;20044;-68
2023/10/08 13:25:35;;;;;;;4.40;1.73;;;18.20;99.90;;;;;;5069912;28;20178;-68
2023/10/08 13:28:01;;;;;;;6.65;1.73;;;18.20;99.90;;;;;;5070581;28;20040;-68
2023/10/08 13:30:27;;;;;;;5.95;1.55;;;18.10;99.90;;;;;;5069093;28;20573;-68
2023/10/08 13:32:53;;;;;;;8.52;1.75;;;18.10;99.90;;;;;;5057277;28;20052;-68
2023/10/08 13:35:19;;;;;;;5.75;1.63;;;18.00;99.90;;;;;;5059766;28;20483;-68
2023/10/08 13:37:48;;;;;;;4.70;1.48;;;18.00;99.90;;;;;;5057658;28;20037;-68
2023/10/08 13:40:15;;;;;;;5.97;1.45;;;18.00;99.90;;;;;;5065614;28;20461;-68
2023/10/08 13:42:42;;;;;;;7.10;1.63;;;18.00;99.90;;;;;;5072259;28;20511;-68
2023/10/08 13:45:09;;;;;;;3.72;1.38;;;17.90;99.90;;;;;;5070124;28;20090;-68
2023/10/08 13:47:34;;;;;;;8.23;1.80;;;17.90;99.90;;;;;;5070354;28;20433;-68
2023/10/08 13:50:02;;;;;;;7.85;1.90;;;17.90;99.90;;;;;;5066280;28;20433;-68
2023/10/08 13:52:29;;;;;;;6.18;1.70;;;17.80;99.90;;;;;;5066415;28;20040;-68